Time;durP1;ratioP1;P1;durP2;ratioP2;P2;SDS_P1;SDS_P2;PMS_P1;PMS_P2;Temp;Humidity;BMP_temperature;BMP_pressure;BME280_temperature;BME280_humidity;BME280_pressure;Samples;Min_cycle;Max_cycle;Signal;HPM_P1;HPM_P2
2021/04/04 00:00:22;;;;;;;1.63;1.42;;;10.20;99.90;;;;;;5014989;28;20032;-75
2021/04/04 00:02:49;;;;;;;1.67;1.58;;;10.20;99.90;;;;;;5016389;28;20026;-76
2021/04/04 00:05:15;;;;;;;4.25;2.03;;;10.20;99.90;;;;;;5008733;28;20025;-76
2021/04/04 00:07:41;;;;;;;1.90;1.73;;;10.10;99.90;;;;;;4987672;28;20031;-76
2021/04/04 00:10:09;;;;;;;3.08;2.30;;;10.10;99.90;;;;;;5004701;28;20036;-76
2021/04/04 00:12:36;;;;;;;3.30;2.13;;;10.20;99.90;;;;;;4999571;28;20034;-76
2021/04/04 00:15:09;;;;;;;3.90;2.92;;;10.20;99.90;;;;;;5012356;28;20561;-76
2021/04/04 00:17:35;;;;;;;2.22;2.03;;;10.20;99.90;;;;;;5025656;28;20140;-76
2021/04/04 00:20:08;;;;;;;2.85;2.40;;;10.30;99.90;;;;;;5002439;28;20491;-76
2021/04/04 00:22:33;;;;;;;;;;;10.20;99.90;;;;;;5017937;28;20025;-76
2021/04/04 00:24:59;;;;;;;4.07;2.65;;;10.10;99.90;;;;;;5033922;28;19935;-76
2021/04/04 00:27:25;;;;;;;4.93;2.55;;;10.20;99.90;;;;;;5025371;28;20031;-76
2021/04/04 00:29:50;;;;;;;3.00;2.33;;;10.10;99.90;;;;;;5022256;28;20022;-74
2021/04/04 00:32:16;;;;;;;1.92;1.63;;;10.10;99.90;;;;;;5025131;28;20520;-75
2021/04/04 00:34:42;;;;;;;1.70;1.58;;;10.10;99.90;;;;;;5018912;28;20052;-76
2021/04/04 00:37:07;;;;;;;1.98;1.88;;;10.10;99.90;;;;;;5018824;28;20400;-76
2021/04/04 00:39:33;;;;;;;3.88;2.50;;;10.00;99.90;;;;;;5009507;28;20018;-76
2021/04/04 00:41:59;;;;;;;1.70;1.60;;;10.10;99.90;;;;;;5005414;28;20030;-76
2021/04/04 00:44:25;;;;;;;3.08;2.45;;;10.10;99.90;;;;;;5004964;28;20578;-76
2021/04/04 00:46:50;;;;;;;5.93;2.08;;;10.10;99.90;;;;;;5025279;28;20034;-76
2021/04/04 00:49:16;;;;;;;3.70;2.38;;;10.10;99.90;;;;;;5027134;28;20132;-76
2021/04/04 00:51:42;;;;;;;4.07;3.28;;;10.10;99.90;;;;;;5026808;28;20491;-75
2021/04/04 00:54:08;;;;;;;3.67;2.13;;;10.10;99.90;;;;;;5022019;28;20059;-75
2021/04/04 00:56:34;;;;;;;5.40;3.38;;;10.10;99.90;;;;;;5004129;28;20061;-75
2021/04/04 00:59:02;;;;;;;3.55;2.65;;;10.10;99.90;;;;;;5007342;28;20045;-74
2021/04/04 01:01:28;;;;;;;3.55;2.65;;;10.00;99.90;;;;;;5020027;28;20030;-76
2021/04/04 01:03:54;;;;;;;4.88;2.78;;;10.10;99.90;;;;;;5022421;28;20022;-75
2021/04/04 01:06:19;;;;;;;3.42;2.50;;;10.10;99.90;;;;;;5013822;28;20049;-75
2021/04/04 01:08:45;;;;;;;1.77;1.50;;;10.20;99.90;;;;;;5006573;28;20026;-75
2021/04/04 01:11:15;;;;;;;4.07;2.85;;;10.20;99.90;;;;;;5002050;28;20026;-74
2021/04/04 01:13:46;;;;;;;5.03;2.85;;;10.40;99.90;;;;;;5009019;28;20034;-75
2021/04/04 01:16:28;;;;;;;5.82;2.72;;;10.30;99.90;;;;;;5007650;28;20060;-74
2021/04/04 01:19:08;;;;;;;3.83;2.33;;;10.30;99.90;;;;;;5014363;28;20029;-75
2021/04/04 01:21:43;;;;;;;5.38;2.50;;;10.30;99.90;;;;;;5020068;28;20033;-75
2021/04/04 01:24:23;;;;;;;1.75;1.65;;;10.30;99.90;;;;;;5021317;28;20139;-75
2021/04/04 01:27:02;;;;;;;5.35;2.75;;;10.20;99.90;;;;;;5021679;28;20026;-75
2021/04/04 01:29:31;;;;;;;3.90;2.63;;;10.10;99.90;;;;;;5025149;28;20029;-76
2021/04/04 01:31:57;;;;;;;6.18;3.03;;;10.10;99.90;;;;;;5019437;28;20325;-76
2021/04/04 01:34:27;;;;;;;5.50;3.03;;;10.10;99.90;;;;;;5009672;28;20071;-76
2021/04/04 01:36:57;;;;;;;2.65;2.42;;;10.00;99.90;;;;;;5018786;28;20041;-75
2021/04/04 01:39:27;;;;;;;3.13;2.60;;;9.90;99.90;;;;;;5016374;28;20099;-76
2021/04/04 01:41:55;;;;;;;2.97;2.50;;;9.90;99.90;;;;;;5022379;28;20025;-75
2021/04/04 01:44:23;;;;;;;3.22;2.85;;;9.80;99.90;;;;;;5009524;28;20028;-76
2021/04/04 01:46:52;;;;;;;2.25;1.75;;;9.70;99.90;;;;;;5017596;28;20026;-76
2021/04/04 01:49:20;;;;;;;2.95;2.05;;;9.70;99.90;;;;;;5017812;28;20482;-75
2021/04/04 01:51:47;;;;;;;7.70;3.17;;;9.70;99.90;;;;;;5024659;28;20033;-76
2021/04/04 01:54:17;;;;;;;3.63;2.95;;;9.60;99.90;;;;;;5019643;28;20030;-75
2021/04/04 01:56:44;;;;;;;6.50;2.95;;;9.60;99.90;;;;;;5019235;28;20375;-76
2021/04/04 01:59:12;;;;;;;3.20;2.47;;;9.50;99.90;;;;;;5022349;28;20486;-76
2021/04/04 02:01:38;;;;;;;2.80;2.25;;;9.50;99.90;;;;;;5016655;28;20030;-76
2021/04/04 02:04:08;;;;;;;2.97;2.70;;;9.60;99.90;;;;;;5001277;28;20073;-76
2021/04/04 02:06:36;;;;;;;4.15;3.42;;;9.60;99.90;;;;;;5022521;28;20029;-75
2021/04/04 02:09:05;;;;;;;2.45;2.25;;;9.60;99.90;;;;;;5019958;28;20044;-76
2021/04/04 02:11:33;;;;;;;2.53;2.25;;;9.60;99.90;;;;;;5018223;28;20104;-75
2021/04/04 02:14:02;;;;;;;2.95;2.75;;;9.60;99.90;;;;;;5003799;28;20030;-76
2021/04/04 02:16:29;;;;;;;4.15;2.80;;;9.60;99.90;;;;;;5009297;28;20033;-76
2021/04/04 02:18:55;;;;;;;3.33;3.03;;;9.60;99.90;;;;;;5007816;28;20060;-76
2021/04/04 02:21:22;;;;;;;7.22;2.67;;;9.70;99.90;;;;;;5013708;28;20022;-76
2021/04/04 02:23:48;;;;;;;6.47;2.67;;;9.50;99.90;;;;;;5018630;28;20075;-75
2021/04/04 02:26:14;;;;;;;3.17;2.63;;;9.50;99.90;;;;;;4994425;28;20105;-75
2021/04/04 02:28:40;;;;;;;2.47;2.28;;;9.50;99.90;;;;;;5013405;28;20022;-75
2021/04/04 02:31:11;;;;;;;5.95;3.10;;;9.40;99.90;;;;;;5011339;28;20034;-75
2021/04/04 02:33:42;;;;;;;4.35;3.67;;;9.30;99.90;;;;;;5017304;28;20117;-75
2021/04/04 02:36:12;;;;;;;4.32;3.50;;;9.30;99.90;;;;;;5021285;28;20535;-75
2021/04/04 02:38:57;;;;;;;4.65;3.65;;;9.30;99.90;;;;;;5004909;28;20037;-76
2021/04/04 02:41:23;;;;;;;14.45;4.22;;;9.40;99.90;;;;;;4991977;28;20030;-75
2021/04/04 02:43:51;;;;;;;3.15;2.85;;;9.30;99.90;;;;;;5021091;28;20637;-76
2021/04/04 02:46:20;;;;;;;5.53;3.22;;;9.40;99.90;;;;;;5021238;28;20029;-75
2021/04/04 02:48:57;;;;;;;3.95;3.13;;;9.40;99.90;;;;;;5021911;28;20076;-75
2021/04/04 02:51:40;;;;;;;3.95;3.42;;;9.40;99.90;;;;;;5010013;28;20052;-76
2021/04/04 02:54:07;;;;;;;;;;;9.30;99.90;;;;;;5014969;28;20026;-75
2021/04/04 02:56:37;;;;;;;6.30;3.10;;;9.30;99.90;;;;;;5015664;28;19977;-75
2021/04/04 02:59:04;;;;;;;3.92;3.40;;;9.30;99.90;;;;;;5019671;28;20049;-75
2021/04/04 03:01:32;;;;;;;5.95;4.10;;;9.30;99.90;;;;;;5016418;28;20418;-75
2021/04/04 03:03:58;;;;;;;4.18;3.38;;;9.30;99.90;;;;;;5018354;28;20401;-75
2021/04/04 03:06:26;;;;;;;8.50;3.90;;;9.20;99.90;;;;;;5016214;28;20017;-76
2021/04/04 03:08:54;;;;;;;4.90;4.18;;;9.20;99.90;;;;;;5010843;28;20080;-76
2021/04/04 03:11:20;;;;;;;5.43;3.35;;;9.30;99.90;;;;;;5021776;28;20486;-76
2021/04/04 03:13:52;;;;;;;3.90;3.60;;;9.20;99.90;;;;;;5004070;28;20159;-75
2021/04/04 03:16:22;;;;;;;4.47;3.33;;;9.20;99.90;;;;;;5021445;28;20021;-75
2021/04/04 03:18:49;;;;;;;4.90;3.25;;;9.30;99.90;;;;;;5017624;28;20026;-75
2021/04/04 03:21:17;;;;;;;5.45;3.90;;;9.30;99.90;;;;;;5017936;28;20420;-76
2021/04/04 03:23:44;;;;;;;3.97;3.15;;;9.40;99.90;;;;;;5004599;28;20022;-75
2021/04/04 03:26:11;;;;;;;6.07;2.95;;;9.40;99.90;;;;;;4999042;28;20045;-75
2021/04/04 03:28:38;;;;;;;5.55;3.55;;;9.40;99.90;;;;;;5002964;28;20716;-75
2021/04/04 03:31:05;;;;;;;4.70;4.30;;;9.40;99.90;;;;;;5012880;28;20022;-74
2021/04/04 03:33:32;;;;;;;4.45;3.35;;;9.30;99.90;;;;;;5020540;28;20049;-75
2021/04/04 03:35:59;;;;;;;4.47;3.17;;;9.20;99.90;;;;;;5021076;28;20040;-74
2021/04/04 03:38:26;;;;;;;4.72;3.70;;;9.20;99.90;;;;;;4995834;28;20021;-75
2021/04/04 03:40:54;;;;;;;6.75;3.85;;;9.30;99.90;;;;;;5016810;28;20492;-75
2021/04/04 03:43:31;;;;;;;4.10;3.70;;;9.30;99.90;;;;;;4998186;28;20348;-76
2021/04/04 03:46:00;;;;;;;5.07;3.92;;;9.30;99.90;;;;;;5018106;28;20026;-75
2021/04/04 03:48:31;;;;;;;3.83;3.50;;;9.30;99.90;;;;;;5011170;28;20647;-74
2021/04/04 03:50:59;;;;;;;8.23;4.90;;;9.20;99.90;;;;;;5020304;28;20036;-75
2021/04/04 03:53:29;;;;;;;4.20;3.70;;;9.30;99.90;;;;;;4997830;28;20483;-75
2021/04/04 03:55:58;;;;;;;3.13;2.83;;;9.20;99.90;;;;;;5021085;28;20041;-76
2021/04/04 03:58:26;;;;;;;3.63;3.20;;;9.20;99.90;;;;;;5014170;28;20029;-75
2021/04/04 04:00:53;;;;;;;4.70;3.75;;;9.30;99.90;;;;;;5011542;28;20040;-76
2021/04/04 04:03:21;;;;;;;3.88;2.80;;;9.30;99.90;;;;;;5021998;28;20107;-76
2021/04/04 04:05:49;;;;;;;6.22;4.18;;;9.30;99.90;;;;;;5002706;28;20036;-76
2021/04/04 04:08:17;;;;;;;4.97;3.63;;;9.30;99.90;;;;;;5014105;28;20029;-75
2021/04/04 04:10:44;;;;;;;7.28;3.58;;;9.20;99.90;;;;;;5010514;28;20030;-76
2021/04/04 04:13:10;;;;;;;9.23;3.00;;;9.20;99.90;;;;;;5019258;28;20026;-76
2021/04/04 04:15:36;;;;;;;4.60;3.67;;;9.20;99.90;;;;;;5017519;28;20100;-76
2021/04/04 04:18:04;;;;;;;3.97;3.55;;;9.30;99.90;;;;;;5013637;28;20038;-75
2021/04/04 04:20:31;;;;;;;3.80;3.47;;;9.20;99.90;;;;;;5006397;28;20045;-75
2021/04/04 04:22:59;;;;;;;4.15;3.35;;;9.10;99.90;;;;;;5017791;28;20108;-76
2021/04/04 04:25:27;;;;;;;5.38;3.42;;;9.20;99.90;;;;;;5008499;28;20022;-76
2021/04/04 04:27:54;;;;;;;3.78;3.47;;;9.20;99.90;;;;;;5014754;28;20030;-76
2021/04/04 04:30:21;;;;;;;5.25;3.40;;;9.10;99.90;;;;;;5015094;28;20028;-76
2021/04/04 04:32:51;;;;;;;4.63;4.25;;;9.10;99.90;;;;;;5017860;28;20063;-76
2021/04/04 04:35:19;;;;;;;3.10;2.80;;;9.10;99.90;;;;;;5021909;28;20026;-75
2021/04/04 04:37:45;;;;;;;5.40;3.67;;;8.90;99.90;;;;;;5009046;28;20052;-76
2021/04/04 04:40:11;;;;;;;3.92;3.45;;;8.80;99.90;;;;;;4999521;28;20026;-76
2021/04/04 04:42:41;;;;;;;6.70;4.35;;;8.70;99.90;;;;;;5008959;28;20052;-75
2021/04/04 04:45:15;;;;;;;6.85;4.50;;;8.60;99.90;;;;;;5010128;28;20061;-75
2021/04/04 04:47:42;;;;;;;6.85;4.47;;;8.70;99.90;;;;;;5012618;28;20045;-75
2021/04/04 04:50:10;;;;;;;8.35;4.25;;;8.60;99.90;;;;;;5002839;28;20034;-75
2021/04/04 04:52:36;;;;;;;4.43;3.40;;;8.50;99.90;;;;;;5020620;28;20044;-76
2021/04/04 04:55:03;;;;;;;5.70;4.25;;;8.30;99.90;;;;;;5000747;28;20030;-76
2021/04/04 04:57:29;;;;;;;6.78;4.25;;;8.40;99.90;;;;;;5013574;28;20125;-77
2021/04/04 04:59:59;;;;;;;7.10;4.20;;;8.30;99.90;;;;;;5026194;28;20021;-77
2021/04/04 05:02:25;;;;;;;7.22;3.63;;;8.30;99.90;;;;;;5022073;28;20037;-75
2021/04/04 05:04:51;;;;;;;5.60;3.75;;;8.20;99.90;;;;;;5026313;28;20029;-75
2021/04/04 05:07:20;;;;;;;5.57;4.13;;;8.20;99.90;;;;;;5018122;28;20046;-76
2021/04/04 05:09:48;;;;;;;6.45;4.38;;;8.10;99.90;;;;;;5007458;28;20038;-75
2021/04/04 05:12:20;;;;;;;3.95;3.42;;;8.10;99.90;;;;;;5004668;28;20058;-75
2021/04/04 05:14:47;;;;;;;4.40;3.88;;;8.10;99.90;;;;;;4995239;28;20041;-75
2021/04/04 05:17:13;;;;;;;6.72;3.65;;;8.00;99.90;;;;;;5020021;28;20022;-75
2021/04/04 05:19:40;;;;;;;3.33;3.03;;;8.00;99.90;;;;;;5027566;28;20083;-76
2021/04/04 05:22:08;;;;;;;4.28;3.83;;;8.10;99.90;;;;;;5018856;28;20026;-75
2021/04/04 05:24:34;;;;;;;5.38;3.33;;;8.10;99.90;;;;;;5014134;28;20031;-76
2021/04/04 05:26:59;;;;;;;4.35;2.97;;;8.10;99.90;;;;;;5010366;28;20033;-76
2021/04/04 05:29:25;;;;;;;5.82;3.95;;;8.10;99.90;;;;;;5000621;28;20042;-76
2021/04/04 05:31:52;;;;;;;5.47;3.20;;;8.10;99.90;;;;;;5014739;28;20034;-76
2021/04/04 05:34:24;;;;;;;8.35;5.25;;;8.10;99.90;;;;;;5018818;28;20033;-75
2021/04/04 05:36:55;;;;;;;3.95;3.50;;;8.20;99.90;;;;;;5018209;28;20037;-75
2021/04/04 05:39:23;;;;;;;4.95;3.42;;;8.20;99.90;;;;;;5009188;28;20495;-75
2021/04/04 05:42:11;;;;;;;4.68;3.40;;;8.20;99.90;;;;;;5011331;28;20038;-75
2021/04/04 05:44:57;;;;;;;6.07;3.38;;;8.20;99.90;;;;;;5018439;28;20037;-76
2021/04/04 05:47:32;;;;;;;5.05;3.85;;;8.30;99.90;;;;;;5014174;28;20387;-76
2021/04/04 05:50:27;;;;;;;3.58;3.05;;;8.40;99.90;;;;;;5007077;28;20133;-75
2021/04/04 05:53:29;;;;;;;6.22;4.35;;;8.40;99.90;;;;;;5016349;28;20042;-75
2021/04/04 05:56:22;;;;;;;4.28;3.83;;;8.40;99.90;;;;;;4991282;28;20037;-75
2021/04/04 05:59:00;;;;;;;4.82;3.60;;;8.50;99.90;;;;;;5023282;28;20029;-76
2021/04/04 06:01:28;;;;;;;5.18;3.97;;;8.60;99.90;;;;;;5011828;28;20017;-76
2021/04/04 06:04:14;;;;;;;4.70;4.03;;;8.60;99.90;;;;;;5016931;28;20077;-75
2021/04/04 06:06:57;;;;;;;4.78;3.70;;;8.80;99.90;;;;;;5011157;28;20484;-75
2021/04/04 06:09:55;;;;;;;5.30;3.80;;;8.90;99.90;;;;;;4991737;28;20334;-76
2021/04/04 06:12:31;;;;;;;4.75;4.25;;;9.00;99.90;;;;;;4995020;28;20117;-75
2021/04/04 06:15:03;;;;;;;6.25;4.32;;;9.00;99.90;;;;;;4978354;28;20034;-75
2021/04/04 06:18:00;;;;;;;5.68;4.38;;;9.10;99.90;;;;;;4995840;28;20040;-75
2021/04/04 06:20:40;;;;;;;6.85;3.35;;;9.10;99.90;;;;;;4999247;28;20061;-76
2021/04/04 06:23:14;;;;;;;4.72;4.20;;;9.20;99.90;;;;;;4993622;28;20037;-75
2021/04/04 06:25:54;;;;;;;8.75;3.55;;;9.30;99.90;;;;;;4994273;28;20123;-75
2021/04/04 06:28:31;;;;;;;3.38;3.08;;;9.40;99.90;;;;;;4992854;28;20027;-75
2021/04/04 06:31:25;;;;;;;4.35;3.67;;;9.40;99.90;;;;;;4996657;28;20089;-75
2021/04/04 06:34:31;;;;;;;4.10;3.65;;;9.50;99.90;;;;;;5010805;28;20479;-75
2021/04/04 06:37:03;;;;;;;6.75;3.50;;;9.50;99.90;;;;;;4982506;28;20192;-76
2021/04/04 06:39:39;;;;;;;6.28;4.40;;;9.70;99.90;;;;;;4992107;28;20480;-76
2021/04/04 06:42:10;;;;;;;4.38;3.95;;;9.80;99.90;;;;;;4993115;28;20624;-75
2021/04/04 06:45:00;;;;;;;4.45;3.42;;;9.80;99.90;;;;;;4991979;28;20025;-76
2021/04/04 06:47:33;;;;;;;4.50;3.00;;;9.80;99.90;;;;;;4975143;28;20030;-76
2021/04/04 06:50:18;;;;;;;4.55;2.90;;;9.90;99.90;;;;;;4996114;28;20034;-75
2021/04/04 06:52:58;;;;;;;7.60;3.80;;;9.80;99.90;;;;;;4991811;28;20034;-76
2021/04/04 06:55:54;;;;;;;4.25;3.40;;;9.90;99.90;;;;;;4975181;28;20030;-75
2021/04/04 06:58:33;;;;;;;4.07;3.20;;;9.90;99.90;;;;;;4992358;28;20485;-75
2021/04/04 07:01:17;;;;;;;3.35;2.83;;;9.90;99.90;;;;;;4991701;28;20022;-76
2021/04/04 07:03:49;;;;;;;4.70;3.53;;;10.00;99.90;;;;;;4991452;28;20034;-76
2021/04/04 07:06:26;;;;;;;5.18;3.40;;;10.20;99.90;;;;;;4992841;28;20101;-75
2021/04/04 07:09:17;;;;;;;2.50;2.28;;;10.30;99.90;;;;;;4994030;28;20084;-76
2021/04/04 07:12:04;;;;;;;2.90;2.13;;;10.20;99.90;;;;;;5000835;28;20108;-75
2021/04/04 07:14:48;;;;;;;3.50;3.17;;;10.10;99.90;;;;;;4992080;28;20365;-76
2021/04/04 07:17:32;;;;;;;3.35;2.85;;;10.20;99.90;;;;;;4983151;28;20025;-77
2021/04/04 07:20:06;;;;;;;5.57;3.03;;;10.30;99.90;;;;;;5006104;28;20072;-77
2021/04/04 07:23:09;;;;;;;4.65;3.40;;;10.50;99.90;;;;;;5032019;28;20021;-76
2021/04/04 07:26:02;;;;;;;4.00;3.20;;;10.60;99.90;;;;;;4991662;28;20021;-76
2021/04/04 07:28:49;;;;;;;4.00;2.67;;;10.80;99.90;;;;;;4998128;28;20524;-76
2021/04/04 07:31:22;;;;;;;3.65;3.13;;;10.70;99.90;;;;;;4991862;28;20026;-76
2021/04/04 07:34:03;;;;;;;3.90;2.83;;;10.80;99.90;;;;;;5006566;28;20022;-76
2021/04/04 07:37:04;;;;;;;3.57;2.53;;;10.70;99.90;;;;;;5028236;28;20113;-77
2021/04/04 07:39:45;;;;;;;9.50;2.97;;;10.90;99.90;;;;;;5028255;28;20044;-76
2021/04/04 07:42:19;;;;;;;4.80;2.85;;;10.90;99.90;;;;;;4985174;28;20487;-76
2021/04/04 07:45:02;;;;;;;4.85;3.28;;;11.00;99.90;;;;;;5010415;28;20030;-75
2021/04/04 07:47:54;;;;;;;2.38;2.17;;;11.00;99.90;;;;;;5019304;28;20041;-76
2021/04/04 07:50:47;;;;;;;5.28;3.28;;;11.00;99.60;;;;;;5014162;28;20113;-76
2021/04/04 07:53:30;;;;;;;8.05;2.95;;;11.00;99.50;;;;;;4977969;28;20053;-77
2021/04/04 07:56:17;;;;;;;6.15;5.28;;;11.00;99.90;;;;;;4981204;28;20133;-77
2021/04/04 07:59:02;;;;;;;2.92;2.63;;;11.10;99.80;;;;;;4993085;28;20037;-75
2021/04/04 08:01:41;;;;;;;4.75;2.53;;;11.30;99.70;;;;;;4990803;28;20018;-71
2021/04/04 08:04:16;;;;;;;7.57;2.35;;;11.20;98.80;;;;;;4973489;28;20034;-72
2021/04/04 08:06:49;;;;;;;3.63;2.97;;;11.30;99.50;;;;;;4991196;28;20030;-72
2021/04/04 08:09:31;;;;;;;2.08;1.85;;;11.40;99.30;;;;;;4995030;28;20029;-75
2021/04/04 08:12:00;;;;;;;2.30;2.08;;;11.30;97.90;;;;;;5010251;28;20034;-76
2021/04/04 08:14:35;;;;;;;3.90;2.67;;;11.10;98.00;;;;;;5010400;28;20038;-74
2021/04/04 08:17:01;;;;;;;2.70;2.20;;;11.20;98.10;;;;;;4998714;28;20036;-75
2021/04/04 08:19:27;;;;;;;3.08;2.22;;;11.30;98.20;;;;;;5001142;28;20033;-74
2021/04/04 08:22:02;;;;;;;6.20;3.75;;;11.30;97.10;;;;;;4990677;28;20116;-73
2021/04/04 08:24:47;;;;;;;2.60;2.00;;;11.30;98.30;;;;;;4990696;28;20050;-72
2021/04/04 08:27:25;;;;;;;4.72;2.60;;;11.30;98.00;;;;;;4993078;28;20030;-72
2021/04/04 08:30:17;;;;;;;5.53;3.28;;;11.50;97.80;;;;;;4973764;28;20057;-74
2021/04/04 08:33:15;;;;;;;3.80;2.05;;;11.60;98.30;;;;;;4993198;28;20081;-73
2021/04/04 08:35:44;;;;;;;4.10;2.50;;;11.60;97.40;;;;;;4951703;28;20488;-72
2021/04/04 08:38:17;;;;;;;13.88;3.15;;;11.50;97.40;;;;;;5001686;28;20053;-75
2021/04/04 08:40:43;;;;;;;2.78;2.53;;;11.50;95.50;;;;;;5005863;28;20022;-70
2021/04/04 08:43:11;;;;;;;2.83;2.58;;;11.60;95.40;;;;;;5004240;28;20033;-69
2021/04/04 08:45:47;;;;;;;5.00;2.42;;;11.60;95.50;;;;;;5011001;28;20471;-68
2021/04/04 08:48:15;;;;;;;5.32;2.40;;;11.60;94.90;;;;;;5009362;28;20419;-69
2021/04/04 08:50:44;;;;;;;4.22;2.65;;;11.50;94.50;;;;;;4997751;28;20481;-70
2021/04/04 08:53:18;;;;;;;2.55;2.25;;;11.40;94.70;;;;;;4994004;28;20096;-69
2021/04/04 08:55:47;;;;;;;5.25;2.42;;;11.60;94.80;;;;;;4994097;28;20030;-70
2021/04/04 08:58:16;;;;;;;4.85;2.85;;;11.60;95.10;;;;;;4993986;28;20086;-69
2021/04/04 09:00:43;;;;;;;3.50;2.63;;;11.60;95.10;;;;;;4996461;28;20034;-69
2021/04/04 09:03:18;;;;;;;4.43;2.10;;;11.80;95.60;;;;;;4993952;28;20068;-69
2021/04/04 09:05:44;;;;;;;6.30;2.72;;;12.00;96.20;;;;;;4994167;28;20023;-70
2021/04/04 09:08:13;;;;;;;2.75;2.20;;;12.00;95.70;;;;;;4999233;28;20108;-71
2021/04/04 09:10:40;;;;;;;3.70;2.17;;;11.90;95.00;;;;;;5011097;28;20033;-69
2021/04/04 09:13:11;;;;;;;5.50;3.08;;;12.00;93.70;;;;;;5011473;28;20033;-71
2021/04/04 09:15:48;;;;;;;3.90;2.63;;;12.10;94.70;;;;;;5013230;28;20041;-69
2021/04/04 09:18:15;;;;;;;2.85;2.58;;;12.10;93.90;;;;;;5013192;28;20084;-71
2021/04/04 09:20:44;;;;;;;3.85;2.60;;;12.10;94.10;;;;;;5009845;28;21732;-70
2021/04/04 09:23:11;;;;;;;5.22;2.63;;;12.20;94.10;;;;;;5001540;28;20032;-71
2021/04/04 09:25:52;;;;;;;7.43;2.17;;;12.30;93.50;;;;;;5015783;28;20496;-71
2021/04/04 09:28:21;;;;;;;4.68;2.05;;;12.10;88.70;;;;;;5019357;28;20387;-72
2021/04/04 09:30:47;;;;;;;5.72;2.10;;;12.00;89.40;;;;;;5016617;28;20522;-72
2021/04/04 09:33:25;;;;;;;4.45;2.65;;;12.00;90.20;;;;;;5019778;28;20033;-71
2021/04/04 09:36:01;;;;;;;2.40;2.17;;;11.90;90.50;;;;;;5020138;28;20025;-71
2021/04/04 09:38:39;;;;;;;7.85;2.35;;;12.00;91.20;;;;;;5007324;28;20052;-71
2021/04/04 09:41:06;;;;;;;6.68;2.47;;;12.10;90.10;;;;;;5011620;28;20026;-70
2021/04/04 09:43:57;;;;;;;6.13;2.90;;;12.30;92.20;;;;;;5013273;28;20041;-70
2021/04/04 09:46:23;;;;;;;4.75;2.55;;;12.30;94.00;;;;;;5002368;28;20057;-72
2021/04/04 09:48:49;;;;;;;5.80;3.25;;;12.50;93.80;;;;;;5011292;28;20104;-71
2021/04/04 09:51:16;;;;;;;3.83;2.97;;;12.30;93.80;;;;;;5011256;28;20730;-72
2021/04/04 09:53:49;;;;;;;3.20;2.22;;;12.50;93.10;;;;;;5011266;28;20058;-70
2021/04/04 09:56:16;;;;;;;2.97;2.50;;;12.30;93.00;;;;;;5007995;28;20046;-72
2021/04/04 09:58:46;;;;;;;2.55;2.17;;;12.40;93.80;;;;;;5011172;28;20041;-69
2021/04/04 10:01:17;;;;;;;3.25;2.28;;;12.40;93.70;;;;;;4996405;28;20022;-71
2021/04/04 10:04:01;;;;;;;3.30;2.75;;;12.50;93.30;;;;;;4994331;28;20021;-71
2021/04/04 10:06:28;;;;;;;3.13;2.55;;;12.60;91.40;;;;;;5019046;28;20057;-71
2021/04/04 10:09:00;;;;;;;2.53;2.30;;;12.50;91.00;;;;;;5012494;28;20021;-72
2021/04/04 10:11:27;;;;;;;4.10;2.00;;;12.50;89.90;;;;;;4992757;28;20023;-71
2021/04/04 10:14:19;;;;;;;4.13;2.67;;;12.40;88.30;;;;;;4974858;28;20061;-73
2021/04/04 10:16:45;;;;;;;6.33;3.40;;;12.50;89.20;;;;;;4993166;28;20027;-72
2021/04/04 10:19:18;;;;;;;3.65;2.40;;;12.70;90.10;;;;;;5007773;28;20025;-71
2021/04/04 10:21:59;;;;;;;4.22;2.35;;;12.80;89.90;;;;;;4998502;28;20022;-70
2021/04/04 10:24:33;;;;;;;10.40;6.97;;;13.00;88.60;;;;;;5011777;28;20033;-71
2021/04/04 10:27:28;;;;;;;8.75;4.70;;;12.80;87.00;;;;;;5000842;28;20084;-71
2021/04/04 10:30:17;;;;;;;3.15;1.90;;;12.70;87.00;;;;;;5014108;28;20034;-71
2021/04/04 10:32:47;;;;;;;5.70;2.63;;;12.60;85.40;;;;;;4984875;28;20037;-70
2021/04/04 10:35:39;;;;;;;4.72;2.50;;;12.50;86.80;;;;;;4991884;28;20457;-71
2021/04/04 10:38:16;;;;;;;3.42;2.55;;;12.30;88.80;;;;;;4991726;28;20141;-71
2021/04/04 10:41:00;;;;;;;3.50;2.28;;;12.50;88.80;;;;;;5008585;28;20069;-72
2021/04/04 10:43:41;;;;;;;3.58;1.83;;;12.50;88.60;;;;;;4999493;28;20025;-72
2021/04/04 10:46:11;;;;;;;2.20;1.55;;;12.60;87.60;;;;;;4994792;28;20057;-70
2021/04/04 10:48:42;;;;;;;3.60;2.28;;;12.70;87.40;;;;;;5014061;28;20026;-71
2021/04/04 10:51:10;;;;;;;2.97;2.72;;;12.70;87.50;;;;;;5013281;28;20033;-71
2021/04/04 10:53:37;;;;;;;3.72;2.33;;;12.90;87.20;;;;;;5015554;28;20057;-71
2021/04/04 10:56:04;;;;;;;4.60;1.85;;;12.80;87.00;;;;;;5013513;28;20104;-72
2021/04/04 10:58:30;;;;;;;2.40;2.10;;;12.60;86.70;;;;;;5013023;28;20030;-72
2021/04/04 11:00:58;;;;;;;1.83;1.50;;;12.50;83.80;;;;;;5011511;28;20018;-69
2021/04/04 11:03:25;;;;;;;2.83;1.65;;;12.80;87.10;;;;;;5008375;28;20014;-72
2021/04/04 11:05:51;;;;;;;2.13;1.60;;;13.00;85.00;;;;;;4993228;28;20022;-73
2021/04/04 11:08:17;;;;;;;3.28;2.05;;;13.00;86.20;;;;;;5011189;28;20033;-70
2021/04/04 11:10:44;;;;;;;1.85;1.70;;;12.80;85.50;;;;;;4994184;28;20037;-71
2021/04/04 11:13:13;;;;;;;2.53;1.98;;;12.70;86.00;;;;;;5002353;28;20030;-70
2021/04/04 11:15:42;;;;;;;8.65;2.53;;;12.90;85.80;;;;;;4993208;28;20185;-70
2021/04/04 11:18:15;;;;;;;3.90;1.80;;;13.00;87.00;;;;;;5010937;28;20120;-71
2021/04/04 11:20:44;;;;;;;2.38;2.17;;;13.20;87.40;;;;;;5010016;28;20526;-73
2021/04/04 11:23:11;;;;;;;5.82;1.92;;;13.30;84.30;;;;;;5011101;28;20030;-71
2021/04/04 11:25:37;;;;;;;1.95;1.70;;;13.20;85.60;;;;;;5011161;28;20033;-71
2021/04/04 11:28:17;;;;;;;1.75;1.63;;;13.10;85.70;;;;;;4999739;28;20432;-71
2021/04/04 11:30:43;;;;;;;5.50;2.03;;;13.00;86.40;;;;;;4995666;28;20144;-71
2021/04/04 11:33:21;;;;;;;7.07;2.22;;;13.20;87.20;;;;;;5010806;28;20538;-69
2021/04/04 11:36:10;;;;;;;2.78;2.58;;;13.20;86.30;;;;;;5010941;28;20030;-71
2021/04/04 11:38:54;;;;;;;3.30;3.00;;;13.30;85.40;;;;;;4992136;28;20030;-70
2021/04/04 11:41:27;;;;;;;3.90;2.08;;;13.40;84.70;;;;;;4994129;28;20471;-71
2021/04/04 11:44:18;;;;;;;6.15;2.33;;;13.30;85.80;;;;;;5001656;28;20442;-71
2021/04/04 11:46:55;;;;;;;3.40;1.95;;;13.50;86.10;;;;;;5009205;28;20033;-72
2021/04/04 11:49:30;;;;;;;2.47;1.50;;;13.60;82.70;;;;;;4992872;28;20108;-71
2021/04/04 11:52:01;;;;;;;2.03;1.80;;;13.70;81.60;;;;;;5010610;28;20029;-70
2021/04/04 11:54:44;;;;;;;2.17;2.00;;;13.60;82.20;;;;;;5009415;28;20060;-72
2021/04/04 11:57:17;;;;;;;5.53;1.80;;;13.80;82.60;;;;;;5016381;28;20439;-72
2021/04/04 11:59:43;;;;;;;1.33;1.17;;;13.70;82.40;;;;;;4992437;28;20384;-71
2021/04/04 12:02:10;;;;;;;2.92;1.92;;;13.40;83.70;;;;;;5004106;28;20037;-72
2021/04/04 12:04:49;;;;;;;3.58;2.10;;;13.60;85.20;;;;;;5011086;28;20018;-73
2021/04/04 12:07:17;;;;;;;1.70;1.60;;;13.70;83.70;;;;;;5013587;28;20029;-70
2021/04/04 12:09:47;;;;;;;2.20;1.98;;;13.80;86.50;;;;;;4999267;28;20034;-78
2021/04/04 12:12:14;;;;;;;2.83;2.17;;;13.80;84.60;;;;;;5014562;28;20030;-71
2021/04/04 12:14:51;;;;;;;2.28;1.73;;;13.60;85.10;;;;;;5005491;28;20037;-69
2021/04/04 12:17:20;;;;;;;4.97;1.77;;;13.50;83.40;;;;;;5011159;28;20033;-70
2021/04/04 12:19:46;;;;;;;1.77;1.55;;;13.60;84.90;;;;;;4994833;28;20026;-70
2021/04/04 12:22:14;;;;;;;4.63;2.80;;;13.80;84.40;;;;;;4994935;28;20030;-70
2021/04/04 12:24:49;;;;;;;2.65;1.50;;;13.70;83.30;;;;;;4977528;28;20045;-69
2021/04/04 12:27:17;;;;;;;2.50;1.88;;;13.40;83.60;;;;;;5001547;28;20030;-73
2021/04/04 12:29:52;;;;;;;2.45;1.83;;;13.50;84.80;;;;;;5012416;28;20030;-70
2021/04/04 12:32:26;;;;;;;5.38;1.58;;;13.30;83.40;;;;;;5013696;28;20484;-70
2021/04/04 12:34:54;;;;;;;3.22;1.35;;;13.40;85.80;;;;;;5013597;28;20034;-70
2021/04/04 12:37:22;;;;;;;2.25;1.58;;;13.70;86.80;;;;;;4995847;28;20058;-72
2021/04/04 12:39:49;;;;;;;2.30;1.80;;;13.90;83.00;;;;;;5009883;28;20032;-71
2021/04/04 12:42:19;;;;;;;1.98;1.83;;;13.80;84.30;;;;;;5006372;28;20023;-73
2021/04/04 12:44:47;;;;;;;3.72;2.08;;;13.90;82.60;;;;;;5014016;28;20034;-70
2021/04/04 12:47:15;;;;;;;2.63;1.95;;;13.90;83.60;;;;;;4999614;28;20076;-70
2021/04/04 12:49:42;;;;;;;5.20;1.50;;;14.10;82.50;;;;;;5013049;28;20480;-70
2021/04/04 12:52:09;;;;;;;1.92;1.38;;;13.90;81.70;;;;;;4995866;28;20172;-74
2021/04/04 12:54:36;;;;;;;2.33;1.60;;;14.00;83.90;;;;;;5009399;28;20037;-71
2021/04/04 12:57:03;;;;;;;2.85;1.30;;;14.20;83.50;;;;;;5014533;28;20030;-72
2021/04/04 12:59:28;;;;;;;5.28;1.80;;;14.40;84.40;;;;;;5014132;28;20022;-70
2021/04/04 13:01:54;;;;;;;6.63;1.65;;;14.20;82.80;;;;;;5013578;28;20033;-70
2021/04/04 13:04:25;;;;;;;6.47;3.08;;;14.10;81.00;;;;;;5013147;28;20479;-71
2021/04/04 13:06:52;;;;;;;6.28;1.80;;;14.20;81.90;;;;;;5012169;28;20022;-71
2021/04/04 13:09:19;;;;;;;2.65;1.88;;;14.10;78.70;;;;;;5013561;28;20109;-74
2021/04/04 13:11:46;;;;;;;2.10;1.63;;;14.30;82.70;;;;;;5011834;28;20053;-72
2021/04/04 13:14:23;;;;;;;2.53;1.30;;;14.50;81.50;;;;;;4997318;28;20030;-71
2021/04/04 13:16:49;;;;;;;1.70;1.23;;;14.40;81.40;;;;;;5007749;28;20030;-71